EGCC

Manchester Airport

Manchester, United Kingdom
METAR EGCC 190050Z AUTO VRB03KT 9999 NCD 05/04 Q0999 NOSIG
Observed Flight Rules
Dec-19 @ 00:50 UTC (37 minutes ago) Visual Flight Rules
Wind Visibility Clouds
Variable at 3 knots 10,000+ meters
  • Clear skies
Temperatures Readings
Current 5°C / 41°F
Dewpoint 4°C / 39°F
Humidity 93%
Altimeter 29.5" Hg
Pressure 999 hPa
Elevation 78
METAR EGCC 190050Z AUTO VRB03KT 9999 NCD 05/04 Q0999 NOSIG
Observed Flight Rules
Dec-19 @ 00:50 UTC
(37 minutes ago)
VFR
Wind Visibility
Variable at 3 knots 10,000+ meters
Clouds
  • Clear skies
Temperature Dewpoint
5°C / 41°F 4°C / 39°F
Humidity Altimeter Pressure
93% 29.5" Hg 999 hPa